createdAt,value
2022-11-25T00:01:38.900Z,23.65
2022-11-25T00:04:07.874Z,9.80
2022-11-25T00:06:39.214Z,9.02
2022-11-25T00:09:12.555Z,22.30
2022-11-25T00:11:41.829Z,16.38
2022-11-25T00:14:15.058Z,8.93
2022-11-25T00:16:47.713Z,16.30
2022-11-25T00:19:17.808Z,14.27
2022-11-25T00:21:45.085Z,12.40
2022-11-25T00:24:14.642Z,13.18
2022-11-25T00:26:43.693Z,14.43
2022-11-25T00:29:12.001Z,14.15
2022-11-25T00:31:40.251Z,17.00
2022-11-25T00:34:07.485Z,24.27
2022-11-25T00:36:38.115Z,20.63
2022-11-25T00:39:07.083Z,9.20
2022-11-25T00:41:57.199Z,23.38
2022-11-25T00:44:37.529Z,15.52
2022-11-25T00:47:12.461Z,7.47
2022-11-25T00:49:40.808Z,26.95
2022-11-25T00:52:12.914Z,14.30
2022-11-25T00:54:47.745Z,10.93
2022-11-25T00:57:16.405Z,16.20
2022-11-25T00:59:43.309Z,13.32
2022-11-25T01:02:11.472Z,22.95
2022-11-25T01:04:38.737Z,26.17
2022-11-25T01:07:08.551Z,16.50
2022-11-25T01:09:39.726Z,11.90
2022-11-25T01:12:08.928Z,11.87
2022-11-25T01:14:36.039Z,6.63
2022-11-25T01:17:07.800Z,8.20
2022-11-25T01:19:39.994Z,4.70
2022-11-25T01:22:08.470Z,11.63
2022-11-25T01:24:35.686Z,21.85
2022-11-25T01:27:05.199Z,10.70
2022-11-25T01:29:32.010Z,8.93
2022-11-25T01:32:03.485Z,14.10
2022-11-25T01:34:34.532Z,10.60
2022-11-25T01:37:01.515Z,6.82
2022-11-25T01:39:33.159Z,11.48
2022-11-25T01:44:35.202Z,7.75
2022-11-25T01:47:24.358Z,13.15
2022-11-25T01:50:05.011Z,7.43
2022-11-25T01:52:36.461Z,8.05
2022-11-25T01:55:11.078Z,6.38
2022-11-25T01:58:15.925Z,7.70
2022-11-25T02:00:51.129Z,8.95
2022-11-25T02:03:29.933Z,6.68
2022-11-25T02:06:19.963Z,8.13
2022-11-25T02:08:49.877Z,7.28
2022-11-25T02:11:18.476Z,6.32
2022-11-25T02:13:50.010Z,6.72
2022-11-25T02:16:16.833Z,6.07
2022-11-25T02:18:46.001Z,6.75
2022-11-25T02:21:17.927Z,7.20
2022-11-25T02:24:13.179Z,6.45
2022-11-25T02:26:44.750Z,5.75
2022-11-25T02:29:13.960Z,5.93
2022-11-25T02:31:43.618Z,8.10
2022-11-25T02:34:12.833Z,7.07
2022-11-25T02:36:39.551Z,6.40
2022-11-25T02:39:07.350Z,9.80
2022-11-25T02:41:51.737Z,6.95
2022-11-25T02:44:18.690Z,8.55
2022-11-25T02:46:50.390Z,9.27
2022-11-25T02:49:17.041Z,6.97
2022-11-25T02:51:48.909Z,9.38
2022-11-25T02:54:18.488Z,11.85
2022-11-25T02:56:47.385Z,9.63
2022-11-25T02:59:18.730Z,11.35
2022-11-25T03:01:45.470Z,8.80
2022-11-25T03:04:17.261Z,7.47
2022-11-25T03:06:44.048Z,7.35
2022-11-25T03:09:10.842Z,6.43
2022-11-25T03:11:56.074Z,8.05
2022-11-25T03:14:22.792Z,7.50
2022-11-25T03:16:54.238Z,8.50
2022-11-25T03:19:20.936Z,7.13
2022-11-25T03:21:49.775Z,9.27
2022-11-25T03:24:18.614Z,5.97
2022-11-25T03:26:47.830Z,8.95
2022-11-25T03:29:16.989Z,6.20
2022-11-25T03:31:46.421Z,9.15
2022-11-25T03:34:20.437Z,9.60
2022-11-25T03:36:47.214Z,15.65
2022-11-25T03:39:16.113Z,9.50
2022-11-25T03:41:42.819Z,10.80
2022-11-25T03:44:11.779Z,18.45
2022-11-25T03:46:43.398Z,32.65
2022-11-25T03:49:10.167Z,10.68
2022-11-25T03:51:39.386Z,11.13
2022-11-25T03:54:08.654Z,25.67
2022-11-25T03:56:35.503Z,28.38
2022-11-25T03:59:04.757Z,13.75
2022-11-25T04:01:31.720Z,20.63
2022-11-25T04:04:00.899Z,12.70
2022-11-25T04:06:32.566Z,16.60
2022-11-25T04:09:01.813Z,14.88
2022-11-25T04:11:48.483Z,9.38
2022-11-25T04:14:17.509Z,11.40
2022-11-25T04:16:48.724Z,10.55
2022-11-25T04:19:15.466Z,8.57
2022-11-25T04:21:49.315Z,7.70
2022-11-25T04:24:21.234Z,8.60
2022-11-25T04:26:50.180Z,5.88
2022-11-25T04:29:19.178Z,8.32
2022-11-25T04:31:45.987Z,7.25
2022-11-25T04:34:17.710Z,6.28
2022-11-25T04:36:44.428Z,8.23
2022-11-25T04:39:13.500Z,8.02
2022-11-25T04:41:40.301Z,9.32
2022-11-25T04:44:06.973Z,12.48
2022-11-25T04:46:40.909Z,8.43
2022-11-25T04:49:11.002Z,9.40
2022-11-25T04:51:37.884Z,10.07
2022-11-25T04:54:07.045Z,9.23
2022-11-25T04:56:33.837Z,9.90
2022-11-25T04:59:18.904Z,9.95
2022-11-25T05:01:45.768Z,9.75
2022-11-25T05:04:14.890Z,8.35
2022-11-25T05:06:43.754Z,9.57
2022-11-25T05:09:12.718Z,11.32
2022-11-25T05:11:39.427Z,9.15
2022-11-25T05:14:06.135Z,9.85
2022-11-25T05:16:32.856Z,6.90
2022-11-25T05:18:59.622Z,7.78
2022-11-25T05:21:26.546Z,6.93
2022-11-25T05:23:56.118Z,6.28
2022-11-25T05:26:28.858Z,6.43
2022-11-25T05:28:57.797Z,7.68
2022-11-25T05:31:26.809Z,7.15
2022-11-25T05:33:53.950Z,7.03
2022-11-25T05:36:23.268Z,5.00
2022-11-25T05:38:50.029Z,6.50
2022-11-25T05:41:16.813Z,7.28
2022-11-25T05:43:43.561Z,6.80
2022-11-25T05:46:12.863Z,8.18
2022-11-25T05:48:39.713Z,8.55
2022-11-25T05:51:09.247Z,7.80
2022-11-25T05:53:41.209Z,8.05
2022-11-25T05:58:39.384Z,10.50
2022-11-25T06:01:10.825Z,12.38
2022-11-25T06:03:38.262Z,11.68
2022-11-25T06:06:05.903Z,11.77
2022-11-25T06:08:39.175Z,12.10
2022-11-25T06:11:12.074Z,5.55
2022-11-25T06:13:40.110Z,10.40
2022-11-25T06:16:11.595Z,11.60
2022-11-25T06:18:40.973Z,12.35
2022-11-25T06:21:08.625Z,17.00
2022-11-25T06:23:38.485Z,14.77
2022-11-25T06:26:13.482Z,11.48
2022-11-25T06:28:40.449Z,13.73
2022-11-25T06:31:12.994Z,13.05
2022-11-25T06:33:39.891Z,8.50
2022-11-25T06:36:09.045Z,9.35
2022-11-25T06:38:35.812Z,9.73
2022-11-25T06:41:04.662Z,11.02
2022-11-25T06:43:32.255Z,10.57
2022-11-25T06:46:04.397Z,9.70
2022-11-25T06:48:33.747Z,9.45
2022-11-25T06:51:07.986Z,10.40
2022-11-25T06:53:35.477Z,12.65
2022-11-25T06:56:13.004Z,5.38
2022-11-25T06:58:42.988Z,6.65
2022-11-25T07:01:16.328Z,5.50
2022-11-25T07:03:44.830Z,5.20
2022-11-25T07:06:18.660Z,4.82
2022-11-25T07:08:48.058Z,5.25
2022-11-25T07:11:24.294Z,3.65
2022-11-25T07:14:02.793Z,6.05
2022-11-25T07:16:31.569Z,3.88
2022-11-25T07:19:05.008Z,5.47
2022-11-25T07:21:36.202Z,22.90
2022-11-25T07:24:08.261Z,46.55
2022-11-25T07:26:38.382Z,47.40
2022-11-25T07:29:23.492Z,17.60
2022-11-25T07:32:07.096Z,6.60
2022-11-25T07:34:41.604Z,10.90
2022-11-25T07:37:08.360Z,8.23
2022-11-25T07:39:42.198Z,7.40
2022-11-25T07:42:13.578Z,8.48
2022-11-25T07:44:42.452Z,4.70
2022-11-25T07:47:09.204Z,7.15
2022-11-25T07:49:38.408Z,5.05
2022-11-25T07:52:05.524Z,6.18
2022-11-25T07:54:33.269Z,5.38
2022-11-25T07:57:04.713Z,4.88
2022-11-25T07:59:31.520Z,6.65
2022-11-25T08:02:00.966Z,8.90
2022-11-25T08:04:32.435Z,9.13
2022-11-25T08:06:59.221Z,6.20
2022-11-25T08:09:28.222Z,8.23
2022-11-25T08:11:57.284Z,13.02
2022-11-25T08:14:24.050Z,8.43
2022-11-25T08:16:51.092Z,6.93
2022-11-25T08:19:20.338Z,4.88
2022-11-25T08:21:49.373Z,8.63
2022-11-25T08:24:19.058Z,8.05
2022-11-25T08:26:46.142Z,7.70
2022-11-25T08:29:19.509Z,8.07
2022-11-25T08:31:48.657Z,6.40
2022-11-25T08:34:21.077Z,8.10
2022-11-25T08:36:50.579Z,6.60
2022-11-25T08:42:06.555Z,10.48
2022-11-25T08:44:36.282Z,8.63
2022-11-25T08:47:05.231Z,6.97
2022-11-25T08:49:37.544Z,8.40
2022-11-25T08:52:10.104Z,7.13
2022-11-25T08:54:37.021Z,6.60
2022-11-25T08:57:03.839Z,8.68
2022-11-25T08:59:35.953Z,16.45
2022-11-25T09:02:03.208Z,8.68
2022-11-25T09:04:29.982Z,7.53
2022-11-25T09:06:56.967Z,7.38
2022-11-25T09:09:23.735Z,6.97
2022-11-25T09:11:55.398Z,6.60
2022-11-25T09:14:29.454Z,6.47
2022-11-25T09:16:57.122Z,6.60
2022-11-25T09:19:23.932Z,5.80
2022-11-25T09:21:50.717Z,10.52
2022-11-25T09:24:19.892Z,6.70
2022-11-25T09:26:46.654Z,4.95
2022-11-25T09:29:14.040Z,5.70
2022-11-25T09:31:43.391Z,6.07
2022-11-25T09:34:12.301Z,6.18
2022-11-25T09:36:39.247Z,6.45
2022-11-25T09:39:08.258Z,5.55
2022-11-25T09:42:31.421Z,5.05
2022-11-25T09:45:36.780Z,4.63
2022-11-25T09:48:46.965Z,6.80
2022-11-25T09:51:24.987Z,5.22
2022-11-25T09:54:06.958Z,4.85
2022-11-25T09:56:47.485Z,5.63
2022-11-25T09:59:27.024Z,6.43
2022-11-25T10:01:55.748Z,5.85
2022-11-25T10:04:45.536Z,4.78
2022-11-25T10:07:22.557Z,5.20
2022-11-25T10:09:51.631Z,4.82
2022-11-25T10:12:22.356Z,5.70
2022-11-25T10:14:55.058Z,5.60
2022-11-25T10:17:45.950Z,5.75
2022-11-25T10:20:30.549Z,4.85
2022-11-25T10:23:08.371Z,4.25
2022-11-25T10:25:48.306Z,3.70
2022-11-25T10:28:26.519Z,5.05
2022-11-25T10:30:53.249Z,5.18
2022-11-25T10:33:24.547Z,7.18
2022-11-25T10:35:55.436Z,4.30
2022-11-25T10:38:32.926Z,7.68
2022-11-25T10:41:00.550Z,4.72
2022-11-25T10:43:31.868Z,6.40
2022-11-25T10:46:11.419Z,7.75
2022-11-25T10:49:15.343Z,5.50
2022-11-25T10:51:47.807Z,7.65
2022-11-25T10:54:31.265Z,4.88
2022-11-25T10:57:02.633Z,6.10
2022-11-25T10:59:37.638Z,6.22
2022-11-25T11:02:16.415Z,4.50
2022-11-25T11:05:10.400Z,6.60
2022-11-25T11:07:43.012Z,5.72
2022-11-25T11:10:20.132Z,7.93
2022-11-25T11:13:02.886Z,6.15
2022-11-25T11:15:31.732Z,6.70
2022-11-25T11:18:23.814Z,8.20
2022-11-25T11:20:55.364Z,4.85
2022-11-25T11:23:24.935Z,7.38
2022-11-25T11:26:06.447Z,6.75
2022-11-25T11:28:37.108Z,8.30
2022-11-25T11:31:15.038Z,6.05
2022-11-25T11:33:47.258Z,8.15
2022-11-25T11:39:41.608Z,9.27
2022-11-25T11:42:42.832Z,13.00
2022-11-25T11:45:32.579Z,10.13
2022-11-25T11:48:36.079Z,8.77
2022-11-25T11:51:17.604Z,6.88
2022-11-25T11:53:49.830Z,10.93
2022-11-25T11:56:35.703Z,9.27
2022-11-25T11:59:17.841Z,10.23
2022-11-25T12:01:56.684Z,6.78
2022-11-25T12:04:38.748Z,9.73
2022-11-25T12:10:06.671Z,7.38
2022-11-25T12:12:42.614Z,7.07
2022-11-25T12:15:31.001Z,5.45
2022-11-25T12:18:08.062Z,6.88
2022-11-25T12:20:43.979Z,8.30
2022-11-25T12:23:29.238Z,6.82
2022-11-25T12:26:05.565Z,9.88
2022-11-25T12:28:53.870Z,8.57
2022-11-25T12:31:30.363Z,9.40
2022-11-25T12:34:03.038Z,9.15
2022-11-25T12:36:43.502Z,8.02
2022-11-25T12:39:38.470Z,19.02
2022-11-25T12:42:20.722Z,15.82
2022-11-25T12:47:30.115Z,15.57
2022-11-25T12:50:02.191Z,25.23
2022-11-25T12:52:32.291Z,33.15
2022-11-25T12:55:11.028Z,19.95
2022-11-25T12:57:37.753Z,17.65
2022-11-25T13:03:26.076Z,19.42
2022-11-25T13:06:02.151Z,16.48
2022-11-25T13:08:43.882Z,10.75
2022-11-25T13:11:37.704Z,9.05
2022-11-25T13:14:10.503Z,12.65
2022-11-25T13:16:40.333Z,12.00
2022-11-25T13:19:16.218Z,7.28
2022-11-25T13:22:06.843Z,6.65
2022-11-25T13:24:38.952Z,8.68
2022-11-25T13:27:08.411Z,7.78
2022-11-25T13:29:44.225Z,8.05
2022-11-25T13:32:32.690Z,9.40
2022-11-25T13:35:28.432Z,11.50
2022-11-25T13:37:56.399Z,12.95
2022-11-25T13:40:26.440Z,20.95
2022-11-25T13:42:55.371Z,8.55
2022-11-25T13:45:35.599Z,6.72
2022-11-25T13:48:29.223Z,11.27
2022-11-25T13:51:21.751Z,9.55
2022-11-25T13:54:06.670Z,12.82
2022-11-25T13:56:38.208Z,13.70
2022-11-25T13:59:13.804Z,12.88
2022-11-25T14:01:52.097Z,11.73
2022-11-25T14:04:45.351Z,10.65
2022-11-25T14:07:26.898Z,9.05
2022-11-25T14:10:22.979Z,8.40
2022-11-25T14:12:51.935Z,12.00
2022-11-25T14:15:24.518Z,9.82
2022-11-25T14:18:37.080Z,7.45
2022-11-25T14:21:40.228Z,12.05
2022-11-25T14:24:23.096Z,6.80
2022-11-25T14:26:58.260Z,8.10
2022-11-25T14:29:36.214Z,8.02
2022-11-25T14:32:22.869Z,6.50
2022-11-25T14:35:08.177Z,6.90
2022-11-25T14:37:39.263Z,7.60
2022-11-25T14:40:19.198Z,8.82
2022-11-25T14:42:50.057Z,7.80
2022-11-25T14:45:33.292Z,8.48
2022-11-25T14:48:22.625Z,9.20
2022-11-25T14:51:13.849Z,8.75
2022-11-25T14:53:48.837Z,7.93
2022-11-25T14:56:31.029Z,13.25
2022-11-25T14:59:01.336Z,7.40
2022-11-25T15:01:29.225Z,11.55
2022-11-25T15:04:13.717Z,11.60
2022-11-25T15:06:49.099Z,12.50
2022-11-25T15:09:25.395Z,12.88
2022-11-25T15:12:04.694Z,13.60
2022-11-25T15:14:38.396Z,14.88
2022-11-25T15:17:10.102Z,16.23
2022-11-25T15:19:39.923Z,14.40
2022-11-25T15:22:24.345Z,12.93
2022-11-25T15:24:56.065Z,17.75
2022-11-25T15:27:28.008Z,12.93
2022-11-25T15:29:58.951Z,11.32
2022-11-25T15:32:32.148Z,14.15
2022-11-25T15:35:01.533Z,26.15
2022-11-25T15:37:28.551Z,24.98
2022-11-25T15:40:31.907Z,14.75
2022-11-25T15:43:04.492Z,16.88
2022-11-25T15:45:48.881Z,16.75
2022-11-25T15:48:25.206Z,14.82
2022-11-25T15:50:54.649Z,16.10
2022-11-25T15:53:32.948Z,20.52
2022-11-25T15:56:01.947Z,15.95
2022-11-25T15:58:28.894Z,12.73
2022-11-25T16:01:07.057Z,15.10
2022-11-25T16:03:37.058Z,19.35
2022-11-25T16:06:21.822Z,11.20
2022-11-25T16:08:54.644Z,12.63
2022-11-25T16:11:25.488Z,13.50
2022-11-25T16:13:56.222Z,10.82
2022-11-25T16:16:31.827Z,10.85
2022-11-25T16:19:12.759Z,15.02
2022-11-25T16:21:48.357Z,11.10
2022-11-25T16:24:30.094Z,16.35
2022-11-25T16:27:03.118Z,12.40
2022-11-25T16:29:45.320Z,13.10
2022-11-25T16:34:47.779Z,14.35
2022-11-25T16:37:14.635Z,16.17
2022-11-25T16:39:43.883Z,11.98
2022-11-25T16:42:20.202Z,16.70
2022-11-25T16:44:52.330Z,14.80
2022-11-25T16:47:26.161Z,16.25
2022-11-25T16:49:58.154Z,15.20
2022-11-25T16:54:54.015Z,13.02
2022-11-25T16:57:21.963Z,14.23
2022-11-25T16:59:58.697Z,13.27
2022-11-25T17:02:28.292Z,15.93
2022-11-25T17:04:57.384Z,11.77
2022-11-25T17:07:34.168Z,9.38
2022-11-25T17:10:06.343Z,17.42
2022-11-25T17:12:35.102Z,19.08
2022-11-25T17:15:08.028Z,20.50
2022-11-25T17:17:35.198Z,14.77
2022-11-25T17:20:02.056Z,23.60
2022-11-25T17:22:38.725Z,20.25
2022-11-25T17:25:06.398Z,20.88
2022-11-25T17:27:33.570Z,16.55
2022-11-25T17:30:06.374Z,16.27
2022-11-25T17:32:33.592Z,10.57
2022-11-25T17:35:00.607Z,17.35
2022-11-25T17:37:31.060Z,11.93
2022-11-25T17:39:57.817Z,15.57
2022-11-25T17:42:32.124Z,14.75
2022-11-25T17:45:02.141Z,12.65
2022-11-25T17:47:30.985Z,7.75
2022-11-25T17:50:00.044Z,19.35
2022-11-25T17:52:26.777Z,16.17
2022-11-25T17:54:55.670Z,13.93
2022-11-25T17:57:29.266Z,15.60
2022-11-25T17:59:56.103Z,15.40
2022-11-25T18:02:25.180Z,12.35
2022-11-25T18:04:55.244Z,14.25
2022-11-25T18:07:22.014Z,14.45
2022-11-25T18:09:53.468Z,13.73
2022-11-25T18:12:27.856Z,17.15
2022-11-25T18:14:55.639Z,9.63
2022-11-25T18:17:27.255Z,12.52
2022-11-25T18:19:56.502Z,15.30
2022-11-25T18:22:24.020Z,19.42
2022-11-25T18:24:51.361Z,48.58
2022-11-25T18:27:23.249Z,21.27
2022-11-25T18:29:50.836Z,22.60
2022-11-25T18:32:17.674Z,18.98
2022-11-25T18:34:48.803Z,17.73
2022-11-25T18:37:15.571Z,22.52
2022-11-25T18:39:44.548Z,20.10
2022-11-25T18:42:26.589Z,22.40
2022-11-25T18:44:56.367Z,19.27
2022-11-25T18:47:23.173Z,17.95
2022-11-25T18:49:55.066Z,18.55
2022-11-25T18:52:22.672Z,29.63
2022-11-25T18:54:49.614Z,24.10
2022-11-25T18:57:19.064Z,31.38
2022-11-25T19:00:10.239Z,15.93
2022-11-25T19:02:35.580Z,24.90
2022-11-25T19:05:06.538Z,18.10
2022-11-25T19:07:33.314Z,19.45
2022-11-25T19:10:00.055Z,23.15
2022-11-25T19:12:26.878Z,14.75
2022-11-25T19:14:53.718Z,11.40
2022-11-25T19:17:26.289Z,15.13
2022-11-25T19:19:55.374Z,19.60
2022-11-25T19:22:22.801Z,35.28
2022-11-25T19:24:56.662Z,25.88
2022-11-25T19:27:26.676Z,28.13
2022-11-25T19:29:55.914Z,31.88
2022-11-25T19:32:35.556Z,44.00
2022-11-25T19:35:14.966Z,26.38
2022-11-25T19:37:41.836Z,34.20
2022-11-25T19:40:19.780Z,22.75
2022-11-25T19:42:48.302Z,36.75
2022-11-25T19:45:20.501Z,29.52
2022-11-25T19:47:50.666Z,40.70
2022-11-25T19:50:21.922Z,36.17
2022-11-25T19:52:51.326Z,34.37
2022-11-25T19:55:21.473Z,29.38
2022-11-25T19:57:49.224Z,33.40
2022-11-25T20:00:20.400Z,29.90
2022-11-25T20:02:51.462Z,30.13
2022-11-25T20:05:25.636Z,44.43
2022-11-25T20:07:54.819Z,25.00
2022-11-25T20:10:28.483Z,26.08
2022-11-25T20:12:56.909Z,32.35
2022-11-25T20:15:26.901Z,14.18
2022-11-25T20:17:59.889Z,20.75
2022-11-25T20:20:34.957Z,16.73
2022-11-25T20:23:05.493Z,26.00
2022-11-25T20:25:36.323Z,19.60
2022-11-25T20:28:03.057Z,18.48
2022-11-25T20:30:30.067Z,14.23
2022-11-25T20:32:58.960Z,24.17
2022-11-25T20:35:31.997Z,24.85
2022-11-25T20:38:01.332Z,31.27
2022-11-25T20:40:43.372Z,28.48
2022-11-25T20:43:28.948Z,24.23
2022-11-25T20:46:02.626Z,31.00
2022-11-25T20:48:40.264Z,27.42
2022-11-25T20:51:12.878Z,31.60
2022-11-25T20:53:44.510Z,31.55
2022-11-25T20:56:17.045Z,48.85
2022-11-25T20:58:46.485Z,35.25
2022-11-25T21:01:14.685Z,26.23
2022-11-25T21:03:45.494Z,26.52
2022-11-25T21:06:29.991Z,26.67
2022-11-25T21:09:03.977Z,31.48
2022-11-25T21:11:33.197Z,25.02
2022-11-25T21:14:04.928Z,16.45
2022-11-25T21:16:31.669Z,16.40
2022-11-25T21:18:58.630Z,22.00
2022-11-25T21:21:31.969Z,18.88
2022-11-25T21:24:07.486Z,22.42
2022-11-25T21:26:36.690Z,18.50
2022-11-25T21:29:07.876Z,29.60
2022-11-25T21:31:34.763Z,35.20
2022-11-25T21:34:02.486Z,38.97
2022-11-25T21:36:31.222Z,46.40
2022-11-25T21:39:06.775Z,40.58
2022-11-25T21:41:35.198Z,32.05
2022-11-25T21:44:06.001Z,35.83
2022-11-25T21:46:35.143Z,49.28
2022-11-25T21:49:01.887Z,40.63
2022-11-25T21:51:31.042Z,41.25
2022-11-25T21:53:59.931Z,50.53
2022-11-25T21:56:31.412Z,103.85
2022-11-25T21:59:01.998Z,69.80
2022-11-25T22:01:28.938Z,51.97
2022-11-25T22:03:58.276Z,81.70
2022-11-25T22:06:27.334Z,47.55
2022-11-25T22:08:57.462Z,44.38
2022-11-25T22:11:36.281Z,49.38
2022-11-25T22:14:22.096Z,81.00
2022-11-25T22:16:49.157Z,57.35
2022-11-25T22:19:21.730Z,34.88
2022-11-25T22:21:51.245Z,14.27
2022-11-25T22:24:21.612Z,20.17
2022-11-25T22:26:57.442Z,35.30
2022-11-25T22:29:30.653Z,38.33
2022-11-25T22:31:59.822Z,22.85
2022-11-25T22:34:29.093Z,21.73
2022-11-25T22:36:57.915Z,29.25
2022-11-25T22:39:26.714Z,29.70
2022-11-25T22:41:56.600Z,24.92
2022-11-25T22:44:34.796Z,28.23
2022-11-25T22:47:02.318Z,22.40
2022-11-25T22:49:40.414Z,22.98
2022-11-25T22:52:36.357Z,26.65
2022-11-25T22:55:19.522Z,18.20
2022-11-25T22:57:49.680Z,16.83
2022-11-25T23:00:23.041Z,15.10
2022-11-25T23:02:51.630Z,11.15
2022-11-25T23:05:30.726Z,9.20
2022-11-25T23:08:02.978Z,8.13
2022-11-25T23:10:31.827Z,6.70
2022-11-25T23:13:01.028Z,5.80
2022-11-25T23:15:31.118Z,6.20
2022-11-25T23:18:06.737Z,9.48
2022-11-25T23:20:39.541Z,9.05
2022-11-25T23:23:23.482Z,8.93
2022-11-25T23:25:53.458Z,7.13
2022-11-25T23:28:22.885Z,7.95
2022-11-25T23:30:54.998Z,9.43
2022-11-25T23:36:14.380Z,6.03
2022-11-25T23:38:49.004Z,6.07
2022-11-25T23:41:21.789Z,6.90
2022-11-25T23:43:51.008Z,6.03
2022-11-25T23:46:27.446Z,5.20
2022-11-25T23:49:00.999Z,9.18
2022-11-25T23:51:31.317Z,6.10
2022-11-25T23:53:59.063Z,4.20
2022-11-25T23:56:27.780Z,5.95
2022-11-25T23:58:54.451Z,7.10
